Time;durP1;ratioP1;P1;durP2;ratioP2;P2;SDS_P1;SDS_P2;PMS_P1;PMS_P2;Temp;Humidity;BMP_temperature;BMP_pressure;BME280_temperature;BME280_humidity;BME280_pressure;Samples;Min_cycle;Max_cycle;Signal;HPM_P1;HPM_P2
2022/02/13 00:00:55;;;;;;;8.75;5.22;;;;;;;1.53;73.60;99316.84;4853060;29;20064;-82
2022/02/13 00:03:22;;;;;;;6.50;4.25;;;;;;;1.49;73.41;99310.31;4851633;29;20029;-81
2022/02/13 00:05:47;;;;;;;10.20;5.22;;;;;;;1.55;73.66;99321.13;4855340;29;20033;-81
2022/02/13 00:08:13;;;;;;;6.38;4.85;;;;;;;1.50;73.34;99319.84;4851847;29;20048;-82
2022/02/13 00:10:38;;;;;;;6.93;5.57;;;;;;;1.50;73.53;99319.03;4852446;29;20033;-81
2022/02/13 00:13:03;;;;;;;6.15;4.68;;;;;;;1.37;73.11;99314.38;4836093;29;20065;-81
2022/02/13 00:15:29;;;;;;;8.05;5.22;;;;;;;1.36;73.51;99312.72;4852984;29;20041;-81
2022/02/13 00:17:58;;;;;;;7.78;4.85;;;;;;;1.44;73.30;99309.22;4855500;29;20038;-81
2022/02/13 00:20:23;;;;;;;7.68;5.00;;;;;;;1.25;73.36;99267.63;4849593;29;20033;-81
2022/02/13 00:22:49;;;;;;;8.20;4.78;;;;;;;1.33;74.01;99293.88;4848888;29;20093;-81
2022/02/13 00:25:14;;;;;;;7.82;5.07;;;;;;;1.24;73.62;99266.84;4834871;29;20034;-81
2022/02/13 00:27:40;;;;;;;4.97;3.80;;;;;;;1.37;74.05;99274.13;4853530;29;20038;-81
2022/02/13 00:30:08;;;;;;;9.15;5.13;;;;;;;1.49;73.83;99278.75;4853072;29;20069;-81
2022/02/13 00:32:35;;;;;;;7.28;4.88;;;;;;;1.23;74.54;99278.34;4849891;29;20038;-81
2022/02/13 00:35:00;;;;;;;6.53;4.47;;;;;;;1.25;74.23;99275.53;4866682;29;20509;-81
2022/02/13 00:37:26;;;;;;;6.53;4.65;;;;;;;1.35;73.98;99266.41;4851885;29;20057;-82
2022/02/13 00:39:51;;;;;;;11.02;5.72;;;;;;;1.29;74.19;99277.63;4851513;29;20041;-81
2022/02/13 00:42:17;;;;;;;7.00;4.43;;;;;;;1.26;73.77;99256.16;4851939;29;20178;-81
2022/02/13 00:44:42;;;;;;;6.68;4.95;;;;;;;1.39;74.14;99267.69;4836535;29;20363;-81
2022/02/13 00:47:08;;;;;;;6.97;5.47;;;;;;;1.33;73.70;99270.22;4863562;29;20033;-81
2022/02/13 00:49:33;;;;;;;8.35;5.28;;;;;;;1.37;74.06;99259.16;4851833;29;20037;-81
2022/02/13 00:51:59;;;;;;;9.65;4.13;;;;;;;1.38;73.88;99260.78;4837006;29;20048;-81
2022/02/13 00:54:24;;;;;;;9.68;5.15;;;;;;;1.29;74.16;99272.38;4839755;29;20136;-81
2022/02/13 00:56:49;;;;;;;7.25;5.10;;;;;;;1.34;74.45;99264.75;4850764;29;20034;-81
2022/02/13 00:59:15;;;;;;;6.72;4.93;;;;;;;1.28;73.74;99259.41;4851094;29;20435;-81
2022/02/13 01:01:40;;;;;;;6.13;5.03;;;;;;;1.30;74.07;99266.13;4852226;29;20085;-81
2022/02/13 01:04:05;;;;;;;6.57;4.68;;;;;;;1.36;74.04;99262.78;4850916;29;20470;-81
2022/02/13 01:06:31;;;;;;;10.40;6.38;;;;;;;1.38;73.65;99258.16;4863796;29;20124;-81
2022/02/13 01:08:56;;;;;;;7.55;4.78;;;;;;;1.29;74.39;99258.44;4848128;29;20041;-81
2022/02/13 01:11:22;;;;;;;9.40;4.88;;;;;;;1.22;74.77;99258.28;4851960;29;20034;-81
2022/02/13 01:13:48;;;;;;;7.13;4.60;;;;;;;1.31;74.08;99251.97;4833076;29;20060;-81
2022/02/13 01:16:18;;;;;;;9.40;5.25;;;;;;;1.38;73.66;99242.38;4852020;29;20447;-81
2022/02/13 01:18:43;;;;;;;7.82;4.72;;;;;;;1.35;74.11;99252.44;4848775;29;20401;-81
2022/02/13 01:21:12;;;;;;;8.07;5.30;;;;;;;1.35;74.22;99250.63;4853569;29;20030;-81
2022/02/13 01:23:40;;;;;;;6.18;4.78;;;;;;;1.26;74.29;99250.88;4849354;29;20025;-81
2022/02/13 01:26:05;;;;;;;9.32;5.32;;;;;;;1.17;74.44;99249.31;4836230;29;20033;-81
2022/02/13 01:28:31;;;;;;;7.78;4.93;;;;;;;1.14;74.48;99220.75;4818370;29;20494;-81
2022/02/13 01:31:00;;;;;;;11.25;5.53;;;;;;;1.22;74.00;99229.38;4862837;29;20498;-81
2022/02/13 01:33:26;;;;;;;7.65;4.68;;;;;;;1.25;74.32;99234.28;4836366;29;20033;-81
2022/02/13 01:35:52;;;;;;;7.28;4.72;;;;;;;1.25;73.83;99229.03;4851458;29;20113;-80
2022/02/13 01:38:17;;;;;;;8.23;5.72;;;;;;;1.27;74.29;99227.03;4836329;29;20057;-81
2022/02/13 01:40:42;;;;;;;8.02;5.97;;;;;;;1.17;74.24;99215.16;4848339;29;20073;-81
2022/02/13 01:43:08;;;;;;;9.90;5.78;;;;;;;1.23;73.79;99217.88;4850838;29;20423;-81
2022/02/13 01:45:33;;;;;;;6.05;4.93;;;;;;;1.25;73.95;99229.03;4835615;29;20030;-81
2022/02/13 01:47:58;;;;;;;9.48;5.18;;;;;;;1.09;74.15;99215.25;4834804;29;20037;-81
2022/02/13 01:50:24;;;;;;;7.53;4.68;;;;;;;1.20;74.37;99223.47;4836837;29;20041;-81
2022/02/13 01:52:51;;;;;;;9.27;5.90;;;;;;;1.22;74.04;99225.94;4837587;29;20052;-81
2022/02/13 01:55:17;;;;;;;15.07;6.13;;;;;;;1.12;74.50;99212.22;4834724;29;20046;-81
2022/02/13 01:57:42;;;;;;;7.85;5.78;;;;;;;1.13;74.06;99204.19;4835493;29;21053;-81
2022/02/13 02:00:08;;;;;;;12.80;6.15;;;;;;;1.13;74.46;99203.38;4835690;29;20025;-81
2022/02/13 02:02:33;;;;;;;9.45;5.00;;;;;;;1.07;74.67;99197.00;4832514;29;20033;-81
2022/02/13 02:04:59;;;;;;;7.25;5.28;;;;;;;1.16;74.32;99198.56;4850454;29;20061;-81
2022/02/13 02:07:25;;;;;;;8.13;5.65;;;;;;;1.13;74.75;99183.16;4863071;29;20726;-81
2022/02/13 02:09:52;;;;;;;10.02;5.20;;;;;;;1.24;74.66;99185.34;4848863;29;20681;-81
2022/02/13 02:12:17;;;;;;;8.48;5.72;;;;;;;1.13;74.25;99169.19;4849663;29;20101;-81
2022/02/13 02:14:42;;;;;;;7.90;5.50;;;;;;;1.12;73.98;99163.13;4865013;29;20064;-81
2022/02/13 02:17:09;;;;;;;9.02;6.18;;;;;;;1.09;74.09;99165.31;4851005;29;20513;-81
2022/02/13 02:19:35;;;;;;;9.23;4.45;;;;;;;1.13;74.34;99177.91;4851584;29;20029;-81
2022/02/13 02:22:00;;;;;;;8.85;5.07;;;;;;;1.10;74.15;99169.56;4850675;29;20091;-81
2022/02/13 02:24:26;;;;;;;13.73;5.25;;;;;;;1.14;74.36;99158.50;4852136;29;20045;-81
2022/02/13 02:26:51;;;;;;;7.30;5.28;;;;;;;1.06;74.52;99136.75;4835371;29;20112;-81
2022/02/13 02:29:17;;;;;;;9.30;5.28;;;;;;;1.17;73.85;99163.41;4851680;29;20037;-81
2022/02/13 02:31:42;;;;;;;8.25;4.80;;;;;;;1.19;74.64;99160.59;4856297;29;20486;-81
2022/02/13 02:34:07;;;;;;;10.05;4.97;;;;;;;1.20;73.96;99149.88;4841484;29;20037;-81
2022/02/13 02:36:33;;;;;;;7.55;4.90;;;;;;;1.27;74.13;99171.00;4825827;29;20045;-81
2022/02/13 02:38:58;;;;;;;8.60;5.47;;;;;;;1.27;73.90;99153.41;4857744;29;20037;-81
2022/02/13 02:41:24;;;;;;;8.18;5.43;;;;;;;1.32;73.62;99158.13;4860851;29;20042;-81
2022/02/13 02:43:49;;;;;;;7.10;5.10;;;;;;;1.24;73.81;99153.81;4861530;29;20033;-81
2022/02/13 02:46:15;;;;;;;9.15;5.55;;;;;;;1.25;73.83;99150.16;4845289;29;20029;-81
2022/02/13 02:48:40;;;;;;;8.52;5.18;;;;;;;1.20;73.48;99144.63;4840467;29;20494;-81
2022/02/13 02:51:06;;;;;;;10.07;5.22;;;;;;;1.29;73.75;99146.16;4861666;29;20128;-82
2022/02/13 02:53:35;;;;;;;8.38;5.93;;;;;;;1.14;73.96;99139.28;4861711;29;20033;-81
2022/02/13 02:56:01;;;;;;;7.25;5.38;;;;;;;1.07;73.79;99126.03;4843965;29;20048;-82
2022/02/13 02:58:26;;;;;;;7.55;5.00;;;;;;;1.20;73.11;99128.84;4856073;29;20521;-81
2022/02/13 03:00:54;;;;;;;8.52;5.22;;;;;;;1.17;72.67;99126.59;4855846;29;20037;-82
2022/02/13 03:03:20;;;;;;;7.43;5.20;;;;;;;1.19;72.66;99132.50;4854661;29;20041;-81
2022/02/13 03:05:48;;;;;;;9.00;5.40;;;;;;;1.15;73.25;99130.41;4852630;29;20033;-81
2022/02/13 03:08:14;;;;;;;10.73;6.05;;;;;;;1.08;73.93;99117.19;4852864;29;20151;-82
2022/02/13 03:10:43;;;;;;;8.77;5.38;;;;;;;1.05;73.71;99108.84;4863711;29;20307;-82
2022/02/13 03:13:10;;;;;;;6.40;4.47;;;;;;;1.18;73.06;99117.69;4855249;29;20041;-82
2022/02/13 03:15:36;;;;;;;11.57;5.75;;;;;;;1.13;72.92;99127.97;4842798;29;20030;-81
2022/02/13 03:18:02;;;;;;;9.55;6.13;;;;;;;1.15;73.78;99122.53;4854364;29;20029;-81
2022/02/13 03:20:28;;;;;;;5.90;4.63;;;;;;;1.25;72.80;99123.88;4854963;29;20045;-81
2022/02/13 03:22:53;;;;;;;7.97;6.15;;;;;;;1.20;72.62;99114.91;4853336;29;20440;-81
2022/02/13 03:25:19;;;;;;;8.38;5.63;;;;;;;1.11;73.07;99110.75;4840281;29;20438;-81
2022/02/13 03:27:44;;;;;;;9.45;5.35;;;;;;;1.09;73.08;99112.75;4853105;29;20029;-81
2022/02/13 03:30:10;;;;;;;8.57;6.10;;;;;;;1.17;72.92;99125.78;4838253;29;20045;-82
2022/02/13 03:32:36;;;;;;;7.47;5.30;;;;;;;1.11;72.71;99129.13;4838292;29;20049;-82
2022/02/13 03:35:01;;;;;;;6.95;5.47;;;;;;;0.99;73.40;99096.41;4851694;29;20033;-81
2022/02/13 03:37:26;;;;;;;10.27;4.88;;;;;;;0.99;72.80;99106.91;4853290;29;20029;-81
2022/02/13 03:39:53;;;;;;;6.05;5.03;;;;;;;0.90;73.31;99103.56;4863182;29;20033;-81
2022/02/13 03:42:18;;;;;;;10.13;5.85;;;;;;;0.86;73.58;99090.97;4850474;29;20667;-81
2022/02/13 03:44:44;;;;;;;12.25;6.05;;;;;;;1.06;73.51;99102.59;4853174;29;20037;-81
2022/02/13 03:47:09;;;;;;;7.50;5.63;;;;;;;0.97;73.55;99101.03;4840801;29;20108;-81
2022/02/13 03:49:34;;;;;;;8.50;5.20;;;;;;;1.00;73.07;99096.25;4835342;29;20038;-81
2022/02/13 03:52:00;;;;;;;7.93;5.22;;;;;;;1.08;72.92;99100.59;4821976;29;20067;-81
2022/02/13 03:54:25;;;;;;;8.90;5.57;;;;;;;0.98;73.27;99092.16;4856149;29;21538;-81
2022/02/13 03:56:50;;;;;;;12.07;5.72;;;;;;;0.96;72.90;99088.91;4836854;29;20038;-81
2022/02/13 03:59:17;;;;;;;7.70;5.53;;;;;;;0.88;73.57;99092.44;4838688;29;20037;-81
2022/02/13 04:01:42;;;;;;;7.93;5.72;;;;;;;1.02;74.19;99089.00;4860287;29;20032;-81
2022/02/13 04:04:07;;;;;;;10.65;6.10;;;;;;;0.75;73.68;99053.66;4846206;29;20132;-81
2022/02/13 04:06:33;;;;;;;8.27;5.97;;;;;;;1.07;73.13;99088.47;4843885;29;20041;-81
2022/02/13 04:08:58;;;;;;;10.43;5.40;;;;;;;1.07;72.93;99077.94;4860889;29;20169;-82
2022/02/13 04:11:24;;;;;;;11.38;6.57;;;;;;;1.08;73.07;99076.94;4843691;29;20049;-81
2022/02/13 04:13:49;;;;;;;9.20;5.28;;;;;;;1.04;73.17;99073.88;4860237;29;20045;-81
2022/02/13 04:16:14;;;;;;;10.00;5.47;;;;;;;0.89;73.83;99046.78;4858782;29;20085;-81
2022/02/13 04:18:40;;;;;;;6.50;5.50;;;;;;;1.01;73.06;99063.69;4858776;29;20029;-81
2022/02/13 04:21:05;;;;;;;10.23;5.85;;;;;;;0.93;73.49;99045.41;4860987;29;20038;-81
2022/02/13 04:23:31;;;;;;;11.25;6.28;;;;;;;1.06;72.65;99065.78;4874691;29;20085;-81
2022/02/13 04:25:58;;;;;;;7.38;5.78;;;;;;;0.96;73.22;99041.59;4859385;29;20033;-81
2022/02/13 04:28:23;;;;;;;11.07;6.78;;;;;;;1.02;73.29;99044.31;4859733;29;20033;-81
2022/02/13 04:30:49;;;;;;;10.52;5.70;;;;;;;0.97;73.04;99057.19;4838899;29;20156;-81
2022/02/13 04:33:15;;;;;;;11.88;6.13;;;;;;;0.91;72.91;99050.03;4837675;29;20048;-80
2022/02/13 04:35:42;;;;;;;9.38;5.80;;;;;;;1.06;73.20;99056.09;4835624;29;20452;-80
2022/02/13 04:38:07;;;;;;;11.55;5.97;;;;;;;1.06;72.66;99050.00;4865061;29;20041;-81
2022/02/13 04:40:32;;;;;;;9.63;6.63;;;;;;;0.96;72.77;99039.78;4851219;29;20033;-80
2022/02/13 04:42:59;;;;;;;11.60;6.18;;;;;;;1.11;72.55;99045.84;4864095;29;20076;-80
2022/02/13 04:45:24;;;;;;;9.60;5.78;;;;;;;0.97;72.44;99046.69;4847389;29;20045;-80
2022/02/13 04:47:50;;;;;;;9.02;6.07;;;;;;;0.95;73.26;99051.31;4837988;29;20044;-80
2022/02/13 04:50:21;;;;;;;8.95;5.90;;;;;;;0.99;73.06;99049.94;4852317;29;20029;-80
2022/02/13 04:52:46;;;;;;;10.23;6.60;;;;;;;0.89;73.02;99031.00;4847455;29;20052;-80
2022/02/13 04:55:12;;;;;;;12.32;7.07;;;;;;;1.04;72.39;99034.44;4833685;29;20069;-80
2022/02/13 04:57:38;;;;;;;7.43;5.68;;;;;;;0.99;72.57;99044.69;4853108;29;20468;-80
2022/02/13 05:00:04;;;;;;;9.90;6.00;;;;;;;1.00;73.03;99035.00;4833827;29;20041;-80
2022/02/13 05:02:30;;;;;;;9.90;5.88;;;;;;;0.93;72.98;99027.03;4820722;29;20070;-80
2022/02/13 05:04:56;;;;;;;8.65;6.15;;;;;;;0.95;73.16;99022.41;4848636;29;20037;-80
2022/02/13 05:07:21;;;;;;;11.75;6.03;;;;;;;1.06;72.45;99021.09;4836773;29;20043;-80
2022/02/13 05:09:46;;;;;;;11.30;7.20;;;;;;;0.94;72.51;99007.63;4836521;29;20037;-80
2022/02/13 05:12:14;;;;;;;9.68;6.20;;;;;;;0.93;72.57;99005.19;4851332;29;20053;-80
2022/02/13 05:14:40;;;;;;;11.18;6.25;;;;;;;0.86;72.66;99007.72;4835419;29;20584;-80
2022/02/13 05:17:06;;;;;;;9.45;6.40;;;;;;;0.91;72.79;99015.06;4835943;29;20419;-80
2022/02/13 05:19:31;;;;;;;8.20;5.97;;;;;;;0.85;72.54;99014.00;4849896;29;20225;-81
2022/02/13 05:21:57;;;;;;;9.40;6.05;;;;;;;0.77;72.72;99004.38;4854489;29;20093;-80
2022/02/13 05:24:24;;;;;;;12.45;6.22;;;;;;;0.61;73.37;98993.25;4821934;29;20040;-80
2022/02/13 05:26:49;;;;;;;7.95;5.30;;;;;;;0.84;73.21;99001.00;4850995;29;20053;-80
2022/02/13 05:29:15;;;;;;;8.43;5.78;;;;;;;0.90;72.69;99005.53;4850696;29;20061;-80
2022/02/13 05:31:41;;;;;;;11.95;6.28;;;;;;;0.81;73.59;98999.56;4854536;29;20041;-80
2022/02/13 05:34:06;;;;;;;11.35;6.70;;;;;;;0.74;73.14;98985.56;4859298;29;20581;-80
2022/02/13 05:36:31;;;;;;;12.02;6.60;;;;;;;0.65;73.04;98979.59;4853299;29;20049;-80
2022/02/13 05:38:57;;;;;;;8.25;6.25;;;;;;;0.58;72.87;98967.34;4826015;29;20037;-81
2022/02/13 05:41:23;;;;;;;12.27;6.75;;;;;;;0.53;73.56;98953.94;4839654;29;20034;-81
2022/02/13 05:43:49;;;;;;;9.98;6.88;;;;;;;0.54;73.54;98968.72;4855343;29;20025;-81
2022/02/13 05:46:14;;;;;;;12.27;7.38;;;;;;;0.55;73.75;98967.69;4857849;29;20074;-81
2022/02/13 05:48:40;;;;;;;8.32;6.30;;;;;;;0.49;73.28;98976.31;4852900;29;20036;-81
2022/02/13 05:51:06;;;;;;;9.07;6.78;;;;;;;0.56;73.83;98974.59;4841157;29;20140;-80
2022/02/13 05:53:32;;;;;;;10.40;6.88;;;;;;;0.54;73.79;98977.41;4848621;29;20037;-80
2022/02/13 05:55:57;;;;;;;10.77;7.20;;;;;;;0.47;73.78;98967.81;4841454;29;20060;-80
2022/02/13 05:58:22;;;;;;;11.60;7.22;;;;;;;0.55;73.66;98984.28;4857057;29;20029;-80
2022/02/13 06:00:48;;;;;;;11.77;6.63;;;;;;;0.39;73.65;98973.16;4853499;29;20029;-80
2022/02/13 06:03:13;;;;;;;11.15;6.55;;;;;;;0.60;73.67;98989.81;4847922;29;20049;-80
2022/02/13 06:05:39;;;;;;;14.93;7.65;;;;;;;0.49;73.85;98974.50;4853088;29;20045;-80
2022/02/13 06:08:04;;;;;;;14.20;7.38;;;;;;;0.61;73.41;98982.75;4842996;29;20041;-80
2022/02/13 06:10:31;;;;;;;9.32;6.95;;;;;;;0.58;72.95;98969.97;4847938;29;20038;-80
2022/02/13 06:12:56;;;;;;;12.50;7.38;;;;;;;0.67;73.45;98977.59;4848282;29;20036;-80
2022/02/13 06:15:22;;;;;;;13.35;7.28;;;;;;;0.66;73.02;98964.63;4852587;29;20041;-80
2022/02/13 06:17:47;;;;;;;13.60;7.03;;;;;;;0.73;72.86;98962.91;4851520;29;20067;-80
2022/02/13 06:20:13;;;;;;;14.32;6.95;;;;;;;0.70;72.71;98958.81;4839008;29;21596;-80
2022/02/13 06:22:39;;;;;;;9.10;6.55;;;;;;;0.56;73.39;98964.09;4852970;29;20083;-80
2022/02/13 06:25:05;;;;;;;11.70;7.13;;;;;;;0.52;72.78;98961.03;4867272;29;20042;-80
2022/02/13 06:27:30;;;;;;;15.77;7.43;;;;;;;0.62;72.83;98974.69;4853104;29;20066;-80
2022/02/13 06:29:56;;;;;;;8.65;5.97;;;;;;;0.58;72.37;98969.97;4852950;29;20121;-80
2022/02/13 06:32:21;;;;;;;10.95;6.32;;;;;;;0.48;73.09;98965.00;4853563;29;20479;-80
2022/02/13 06:34:46;;;;;;;12.40;6.75;;;;;;;0.54;72.52;98968.72;4837928;29;20030;-80
2022/02/13 06:37:12;;;;;;;8.27;6.10;;;;;;;0.58;72.54;98965.53;4839228;29;20045;-80
2022/02/13 06:39:37;;;;;;;13.20;7.63;;;;;;;0.60;72.46;98963.56;4852732;29;20538;-80
2022/02/13 06:42:03;;;;;;;8.25;6.50;;;;;;;0.59;72.13;98967.16;4854142;29;20041;-80
2022/02/13 06:44:28;;;;;;;8.25;6.25;;;;;;;0.55;72.83;98970.31;4854943;29;20096;-80
2022/02/13 06:46:54;;;;;;;10.75;6.28;;;;;;;0.50;72.87;98952.50;4853047;29;20026;-80
2022/02/13 06:49:19;;;;;;;9.95;7.03;;;;;;;0.48;72.41;98951.84;4854881;29;20045;-80
2022/02/13 06:51:45;;;;;;;8.73;6.07;;;;;;;0.44;72.67;98962.91;4851491;29;20037;-80
2022/02/13 06:54:10;;;;;;;9.70;6.63;;;;;;;0.49;73.17;98964.00;4839841;29;20545;-80
2022/02/13 06:56:36;;;;;;;9.48;6.80;;;;;;;0.45;72.93;98965.38;4837641;29;20089;-80
2022/02/13 06:59:01;;;;;;;12.48;6.30;;;;;;;0.37;73.23;98969.91;4847830;29;20030;-80
2022/02/13 07:01:27;;;;;;;15.85;7.85;;;;;;;0.30;73.02;98975.06;4852966;29;20040;-80
2022/02/13 07:03:54;;;;;;;11.20;8.15;;;;;;;0.26;73.39;98970.34;4836879;29;20029;-80
2022/02/13 07:06:19;;;;;;;9.23;6.75;;;;;;;0.27;73.07;98961.44;4837407;29;20045;-80
2022/02/13 07:08:45;;;;;;;13.90;6.80;;;;;;;0.35;73.31;98974.50;4851000;29;20418;-80
2022/02/13 07:11:10;;;;;;;10.65;6.90;;;;;;;0.30;73.62;98974.22;4850363;29;20509;-80
2022/02/13 07:13:35;;;;;;;11.50;8.02;;;;;;;0.30;73.51;98972.44;4855990;29;20521;-80
2022/02/13 07:16:01;;;;;;;12.52;6.90;;;;;;;0.31;74.05;98968.78;4854317;29;20550;-80
2022/02/13 07:18:26;;;;;;;13.48;6.95;;;;;;;0.38;73.16;98972.34;4864178;29;20133;-81
2022/02/13 07:20:52;;;;;;;14.45;7.55;;;;;;;0.33;73.65;98956.28;4853600;29;20549;-80
2022/02/13 07:23:18;;;;;;;11.32;6.97;;;;;;;0.44;73.35;98953.22;4852711;29;20398;-81
2022/02/13 07:25:43;;;;;;;10.40;6.10;;;;;;;0.53;73.45;98967.06;4852397;29;20036;-80
2022/02/13 07:30:52;;;;;;;11.45;7.68;;;;;;;0.62;73.35;98969.44;4854790;29;20052;-80
2022/02/13 07:33:18;;;;;;;8.95;6.22;;;;;;;0.66;73.01;98965.44;4837596;29;20030;-80
2022/02/13 07:35:43;;;;;;;9.35;6.35;;;;;;;0.65;73.31;98955.13;4849777;29;20045;-80
2022/02/13 07:38:10;;;;;;;11.82;6.68;;;;;;;0.64;73.30;98950.84;4836737;29;20049;-80
2022/02/13 07:40:36;;;;;;;12.18;7.00;;;;;;;0.69;73.50;98948.50;4837897;29;20037;-80
2022/02/13 07:43:02;;;;;;;11.82;7.00;;;;;;;0.70;73.84;98945.69;4853389;29;20038;-80
2022/02/13 07:45:28;;;;;;;10.93;7.25;;;;;;;0.64;74.20;98928.03;4854872;29;20492;-80
2022/02/13 07:47:53;;;;;;;10.50;6.97;;;;;;;0.77;73.05;98951.84;4850665;29;20029;-80
2022/02/13 07:50:18;;;;;;;15.93;9.43;;;;;;;0.77;73.82;98946.59;4836746;29;20071;-81
2022/02/13 07:52:43;;;;;;;8.15;6.38;;;;;;;0.79;74.14;98949.03;4853530;29;20029;-79
2022/02/13 07:55:09;;;;;;;10.38;6.43;;;;;;;0.84;73.93;98969.50;4834704;29;20042;-80
2022/02/13 07:57:34;;;;;;;11.68;7.60;;;;;;;0.83;74.06;98966.03;4850933;29;20112;-80
2022/02/13 07:59:59;;;;;;;13.88;8.30;;;;;;;0.83;74.00;98963.41;4836354;29;20045;-80
2022/02/13 08:02:25;;;;;;;13.45;7.85;;;;;;;0.75;74.56;98947.78;4853398;29;20029;-80
2022/02/13 08:04:50;;;;;;;12.63;8.85;;;;;;;0.67;74.28;98934.75;4837242;29;20379;-80
2022/02/13 08:07:15;;;;;;;13.98;8.90;;;;;;;0.85;74.24;98955.38;4834145;29;20084;-80
2022/02/13 08:09:42;;;;;;;10.73;8.15;;;;;;;0.72;74.31;98941.06;4835571;29;20402;-80
2022/02/13 08:12:09;;;;;;;11.80;8.95;;;;;;;0.74;74.60;98935.66;4853183;29;20410;-80
2022/02/13 08:14:35;;;;;;;14.80;8.27;;;;;;;0.83;74.30;98954.75;4843756;29;20616;-80
2022/02/13 08:17:01;;;;;;;12.10;8.48;;;;;;;0.90;74.83;98953.00;4848867;29;20040;-80
2022/02/13 08:19:26;;;;;;;12.32;8.10;;;;;;;0.87;74.66;98950.75;4852391;29;20430;-80
2022/02/13 08:21:52;;;;;;;14.98;8.65;;;;;;;0.93;74.59;98955.25;4851025;29;20040;-80
2022/02/13 08:24:18;;;;;;;14.90;8.98;;;;;;;0.85;75.38;98953.56;4853918;29;20034;-80
2022/02/13 08:26:43;;;;;;;13.60;8.68;;;;;;;0.88;75.11;98957.63;4853443;29;20032;-80
2022/02/13 08:29:08;;;;;;;11.35;7.57;;;;;;;0.92;75.31;98954.44;4837424;29;20033;-80
2022/02/13 08:31:34;;;;;;;13.68;8.18;;;;;;;0.95;74.81;98959.34;4839360;29;20084;-80
2022/02/13 08:33:59;;;;;;;12.32;8.65;;;;;;;0.91;75.43;98946.75;4842507;29;20124;-80
2022/02/13 08:36:25;;;;;;;12.77;7.60;;;;;;;0.94;75.24;98943.75;4857358;29;20041;-81
2022/02/13 08:38:50;;;;;;;11.68;7.75;;;;;;;1.03;75.59;98963.66;4859347;29;20560;-80
2022/02/13 08:41:16;;;;;;;14.38;8.35;;;;;;;0.99;75.19;98952.72;4857610;29;20037;-80
2022/02/13 08:43:41;;;;;;;14.07;8.10;;;;;;;0.96;75.64;98944.41;4858926;29;20116;-80
2022/02/13 08:46:07;;;;;;;16.38;8.00;;;;;;;1.05;75.33;98951.97;4858880;29;20082;-80
2022/02/13 08:48:32;;;;;;;14.75;8.00;;;;;;;1.01;75.39;98950.72;4827763;29;20505;-80
2022/02/13 08:50:57;;;;;;;10.25;7.78;;;;;;;1.11;75.68;98961.75;4841999;29;20034;-80
2022/02/13 08:53:23;;;;;;;11.73;8.38;;;;;;;1.07;75.67;98949.16;4858505;29;20547;-80
2022/02/13 08:55:48;;;;;;;14.02;7.40;;;;;;;1.11;75.32;98961.75;4843292;29;20051;-80
2022/02/13 08:58:13;;;;;;;13.68;8.48;;;;;;;1.12;76.05;98952.03;4858562;29;20737;-80
2022/02/13 09:00:39;;;;;;;11.15;7.25;;;;;;;1.18;76.09;98953.94;4840611;29;20190;-80
2022/02/13 09:03:04;;;;;;;15.02;8.05;;;;;;;1.16;75.94;98954.09;4852034;29;20125;-80
2022/02/13 09:05:29;;;;;;;13.45;8.50;;;;;;;1.12;76.43;98959.91;4833576;29;20137;-80
2022/02/13 09:07:55;;;;;;;15.43;8.50;;;;;;;1.15;76.41;98949.03;4835436;29;20028;-80
2022/02/13 09:10:20;;;;;;;13.68;7.57;;;;;;;1.23;75.62;98957.63;4864356;29;20063;-80
2022/02/13 09:12:45;;;;;;;11.85;7.60;;;;;;;1.22;76.28;98955.19;4850176;29;20124;-80
2022/02/13 09:15:11;;;;;;;14.15;7.57;;;;;;;1.24;76.06;98958.44;4848323;29;20042;-80
2022/02/13 09:17:37;;;;;;;14.50;7.68;;;;;;;1.24;76.83;98956.63;4845664;29;20025;-80
2022/02/13 09:20:04;;;;;;;12.27;7.78;;;;;;;1.25;76.91;98939.84;4865667;29;20037;-80
2022/02/13 09:22:30;;;;;;;9.82;7.43;;;;;;;1.25;76.75;98924.06;4850874;29;20063;-80
2022/02/13 09:24:55;;;;;;;14.93;8.13;;;;;;;1.27;76.36;98929.97;4864949;29;20045;-80
2022/02/13 09:27:21;;;;;;;13.88;8.30;;;;;;;1.28;76.81;98920.28;4866639;29;20026;-80
2022/02/13 09:29:47;;;;;;;12.73;7.88;;;;;;;1.18;76.45;98896.13;4849912;29;20048;-80
2022/02/13 09:32:12;;;;;;;12.73;8.50;;;;;;;1.33;76.83;98910.81;4837788;29;20041;-80
2022/02/13 09:34:38;;;;;;;11.82;7.68;;;;;;;1.31;76.95;98910.19;4842772;29;20307;-80
2022/02/13 09:37:04;;;;;;;12.20;7.63;;;;;;;1.33;76.69;98923.16;4857384;29;20063;-79
2022/02/13 09:39:29;;;;;;;13.75;8.90;;;;;;;1.45;77.14;98919.84;4858199;29;20498;-80
2022/02/13 09:41:55;;;;;;;11.43;7.60;;;;;;;1.40;76.52;98910.88;4856900;29;20053;-80
2022/02/13 09:44:21;;;;;;;11.90;8.48;;;;;;;1.50;76.61;98911.38;4854743;29;20064;-79
2022/02/13 09:46:47;;;;;;;13.05;8.23;;;;;;;1.52;76.90;98915.44;4853235;29;20040;-79
2022/02/13 09:49:16;;;;;;;12.75;8.52;;;;;;;1.37;76.84;98883.16;4851831;29;20036;-80
2022/02/13 09:51:42;;;;;;;13.20;8.27;;;;;;;1.53;76.39;98900.47;4858229;29;20532;-80
2022/02/13 09:54:07;;;;;;;13.30;7.82;;;;;;;1.66;77.23;98918.19;4841561;29;20033;-80
2022/02/13 09:56:34;;;;;;;14.70;7.30;;;;;;;1.61;77.06;98894.25;4856407;29;20053;-80
2022/02/13 09:58:59;;;;;;;10.88;6.95;;;;;;;1.66;76.96;98905.03;4868893;29;20025;-80
2022/02/13 10:01:44;;;;;;;11.30;6.93;;;;;;;1.55;77.13;98884.50;4854741;29;20447;-80
2022/02/13 10:04:12;;;;;;;12.27;8.30;;;;;;;1.67;77.37;98891.69;4842740;29;20401;-80
2022/02/13 10:06:37;;;;;;;12.77;7.32;;;;;;;1.59;76.17;98906.78;4856014;29;20029;-80
2022/02/13 10:09:05;;;;;;;15.18;8.15;;;;;;;1.67;75.63;98907.47;4855096;29;20089;-81
2022/02/13 10:11:33;;;;;;;11.25;6.75;;;;;;;1.60;75.00;98890.00;4854576;29;20034;-81
2022/02/13 10:14:07;;;;;;;10.88;7.15;;;;;;;1.69;74.75;98900.19;4856085;29;20494;-81
2022/02/13 10:16:48;;;;;;;14.93;10.02;;;;;;;1.68;74.68;98898.59;4857565;29;20037;-81
2022/02/13 10:19:16;;;;;;;12.50;7.03;;;;;;;1.67;74.87;98890.88;4841953;29;20034;-81
2022/02/13 10:21:49;;;;;;;9.80;6.57;;;;;;;1.67;74.59;98890.88;4857136;29;20033;-81
2022/02/13 10:24:15;;;;;;;11.90;7.20;;;;;;;1.70;74.72;98887.88;4857296;29;20083;-80
2022/02/13 10:26:44;;;;;;;9.88;6.70;;;;;;;1.73;74.16;98883.03;4857991;29;20435;-80
2022/02/13 10:29:11;;;;;;;10.60;5.95;;;;;;;1.83;74.16;98890.59;4856511;29;20034;-81
2022/02/13 10:31:37;;;;;;;13.18;6.93;;;;;;;1.87;74.35;98887.38;4839840;29;20090;-80
2022/02/13 10:34:02;;;;;;;16.17;6.15;;;;;;;1.82;73.97;98875.81;4857030;29;20120;-81
2022/02/13 10:36:28;;;;;;;13.20;6.78;;;;;;;1.93;73.63;98880.53;4855097;29;20124;-81
2022/02/13 10:38:54;;;;;;;9.48;6.35;;;;;;;1.96;73.38;98869.63;4855731;29;20052;-81
2022/02/13 10:41:27;;;;;;;11.50;6.32;;;;;;;1.96;73.70;98859.94;4856770;29;20045;-80
2022/02/13 10:44:03;;;;;;;9.07;5.80;;;;;;;1.91;73.84;98841.25;4836607;29;20410;-80
2022/02/13 10:46:40;;;;;;;7.53;5.90;;;;;;;1.93;73.58;98843.69;4844876;29;20546;-81
2022/02/13 10:49:07;;;;;;;13.98;5.75;;;;;;;2.06;74.21;98843.75;4840669;29;20037;-81
2022/02/13 10:51:33;;;;;;;11.93;6.10;;;;;;;2.05;72.97;98832.41;4840767;29;20037;-80
2022/02/13 10:54:04;;;;;;;7.57;5.28;;;;;;;2.15;72.87;98846.06;4856151;29;20181;-80
2022/02/13 10:56:29;;;;;;;9.35;6.50;;;;;;;2.15;72.17;98838.16;4855989;29;20112;-81
2022/02/13 10:58:59;;;;;;;11.05;6.53;;;;;;;2.27;72.64;98841.06;4839682;29;20537;-80
2022/02/13 11:01:26;;;;;;;7.60;5.70;;;;;;;2.28;72.90;98829.50;4858374;29;20021;-80
2022/02/13 11:03:57;;;;;;;8.52;5.35;;;;;;;2.41;72.63;98826.09;4855772;29;20112;-81
2022/02/13 11:06:25;;;;;;;9.63;5.97;;;;;;;2.38;72.00;98815.97;4859711;29;20029;-81
2022/02/13 11:09:10;;;;;;;10.70;5.68;;;;;;;2.38;72.62;98803.59;4854720;29;20032;-81
2022/02/13 11:11:38;;;;;;;8.40;5.53;;;;;;;2.56;71.57;98806.50;4874483;29;20510;-80
2022/02/13 11:14:04;;;;;;;8.48;4.75;;;;;;;2.58;72.15;98790.53;4853437;29;20029;-80
2022/02/13 11:16:36;;;;;;;8.98;5.50;;;;;;;2.70;71.96;98794.19;4841662;29;20046;-81
2022/02/13 11:19:19;;;;;;;6.82;4.63;;;;;;;2.77;71.31;98785.31;4871284;29;20498;-81
2022/02/13 11:21:45;;;;;;;8.88;5.80;;;;;;;2.89;71.44;98793.41;4875349;29;20037;-81
2022/02/13 11:24:24;;;;;;;6.93;4.97;;;;;;;2.85;71.40;98769.28;4860001;29;20391;-81
2022/02/13 11:26:50;;;;;;;10.23;6.95;;;;;;;2.91;71.74;98762.38;4843666;29;20117;-81
2022/02/13 11:29:16;;;;;;;11.52;5.82;;;;;;;3.03;71.58;98774.78;4859995;29;20045;-81
2022/02/13 11:31:49;;;;;;;7.05;4.93;;;;;;;3.15;71.56;98776.78;4859600;29;20029;-81
2022/02/13 11:34:35;;;;;;;7.70;4.78;;;;;;;3.18;71.02;98756.13;4858785;29;20045;-81